createdAt,value
2018-06-16T00:02:13.528Z,18.93
2018-06-16T00:04:42.187Z,21.47
2018-06-16T00:07:10.811Z,17.80
2018-06-16T00:09:39.462Z,20.30
2018-06-16T00:12:08.110Z,21.90
2018-06-16T00:14:36.705Z,20.03
2018-06-16T00:17:05.482Z,19.07
2018-06-16T00:19:34.207Z,20.67
2018-06-16T00:22:02.795Z,21.60
2018-06-16T00:24:31.319Z,18.30
2018-06-16T00:27:00.088Z,19.80
2018-06-16T00:29:28.675Z,21.63
2018-06-16T00:31:57.275Z,19.60
2018-06-16T00:34:25.816Z,21.30
2018-06-16T00:36:54.560Z,20.30
2018-06-16T00:39:23.284Z,24.50
2018-06-16T00:41:52.067Z,20.07
2018-06-16T00:44:21.048Z,20.30
2018-06-16T00:46:49.710Z,21.60
2018-06-16T00:49:18.250Z,20.40
2018-06-16T00:51:46.891Z,23.07
2018-06-16T00:54:15.561Z,20.20
2018-06-16T00:56:45.634Z,21.03
2018-06-16T00:59:14.208Z,18.90
2018-06-16T01:01:42.704Z,20.27
2018-06-16T01:04:11.221Z,18.37
2018-06-16T01:06:39.819Z,21.00
2018-06-16T01:09:08.516Z,23.70
2018-06-16T01:11:37.173Z,20.67
2018-06-16T01:14:06.011Z,20.13
2018-06-16T01:16:34.595Z,18.77
2018-06-16T01:19:03.268Z,19.87
2018-06-16T01:21:31.790Z,19.13
2018-06-16T01:24:00.257Z,18.20
2018-06-16T01:26:28.848Z,19.10
2018-06-16T01:28:57.359Z,21.37
2018-06-16T01:31:26.133Z,20.60
2018-06-16T01:33:54.948Z,20.60
2018-06-16T01:36:24.010Z,19.70
2018-06-16T01:38:52.635Z,19.57
2018-06-16T01:41:21.332Z,18.90
2018-06-16T01:43:49.940Z,20.57
2018-06-16T01:46:18.693Z,21.30
2018-06-16T01:48:47.462Z,22.00
2018-06-16T01:51:16.016Z,19.20
2018-06-16T01:53:44.786Z,17.83
2018-06-16T01:56:13.462Z,23.20
2018-06-16T01:58:42.138Z,20.40
2018-06-16T02:01:10.890Z,22.90
2018-06-16T02:03:39.781Z,18.97
2018-06-16T02:06:08.429Z,22.70
2018-06-16T02:08:36.958Z,17.70
2018-06-16T02:11:05.732Z,21.70
2018-06-16T02:13:34.268Z,19.33
2018-06-16T02:16:03.069Z,17.23
2018-06-16T02:18:31.245Z,18.33
2018-06-16T02:20:59.872Z,20.40
2018-06-16T02:23:28.464Z,19.43
2018-06-16T02:25:57.019Z,17.90
2018-06-16T02:28:25.625Z,18.87
2018-06-16T02:30:54.187Z,18.07
2018-06-16T02:33:22.703Z,19.00
2018-06-16T02:35:51.446Z,16.60
2018-06-16T02:38:20.109Z,20.00
2018-06-16T02:40:48.800Z,17.30
2018-06-16T02:43:17.396Z,20.13
2018-06-16T02:45:45.950Z,17.20
2018-06-16T02:48:14.539Z,18.40
2018-06-16T02:50:43.139Z,18.97
2018-06-16T02:53:11.705Z,18.17
2018-06-16T02:55:40.218Z,18.60
2018-06-16T02:58:08.837Z,18.40
2018-06-16T03:00:37.387Z,18.30
2018-06-16T03:03:05.936Z,17.13
2018-06-16T03:05:34.570Z,20.20
2018-06-16T03:08:03.333Z,18.67
2018-06-16T03:10:32.016Z,18.50
2018-06-16T03:13:00.589Z,18.17
2018-06-16T03:15:29.463Z,17.63
2018-06-16T03:17:57.984Z,16.73
2018-06-16T03:20:26.530Z,17.60
2018-06-16T03:22:55.104Z,17.23
2018-06-16T03:25:23.750Z,16.17
2018-06-16T03:27:52.308Z,17.47
2018-06-16T03:30:21.259Z,17.30
2018-06-16T03:32:50.100Z,17.27
2018-06-16T03:35:18.867Z,16.27
2018-06-16T03:37:47.482Z,21.23
2018-06-16T03:40:16.308Z,20.57
2018-06-16T03:42:44.979Z,17.50
2018-06-16T03:45:13.681Z,18.77
2018-06-16T03:47:42.262Z,19.27
2018-06-16T03:50:10.888Z,17.17
2018-06-16T03:52:39.798Z,17.73
2018-06-16T03:55:08.561Z,16.83
2018-06-16T03:57:37.271Z,17.23
2018-06-16T04:00:06.112Z,18.80
2018-06-16T04:02:34.795Z,20.30
2018-06-16T04:05:03.483Z,17.90
2018-06-16T04:07:32.074Z,19.63
2018-06-16T04:10:00.759Z,17.57
2018-06-16T04:12:29.532Z,22.27
2018-06-16T04:14:58.230Z,19.00
2018-06-16T04:17:26.903Z,16.90
2018-06-16T04:19:55.219Z,17.77
2018-06-16T04:22:24.119Z,19.57
2018-06-16T04:24:52.972Z,20.40
2018-06-16T04:27:21.604Z,18.00
2018-06-16T04:29:50.175Z,18.00
2018-06-16T04:32:18.700Z,17.47
2018-06-16T04:34:47.223Z,18.83
2018-06-16T04:37:15.798Z,19.00
2018-06-16T04:39:44.339Z,17.63
2018-06-16T04:42:12.889Z,19.20
2018-06-16T04:44:41.491Z,18.00
2018-06-16T04:47:10.070Z,18.53
2018-06-16T04:49:38.610Z,19.13
2018-06-16T04:52:07.143Z,19.57
2018-06-16T04:54:35.782Z,18.13
2018-06-16T04:57:04.441Z,18.70
2018-06-16T04:59:32.982Z,18.27
2018-06-16T05:02:01.605Z,18.47
2018-06-16T05:04:30.175Z,19.03
2018-06-16T05:06:58.776Z,19.10
2018-06-16T05:09:27.279Z,18.30
2018-06-16T05:11:55.791Z,19.80
2018-06-16T05:14:24.315Z,18.00
2018-06-16T05:16:52.904Z,19.23
2018-06-16T05:19:21.442Z,18.67
2018-06-16T05:21:50.090Z,21.00
2018-06-16T05:24:18.612Z,18.50
2018-06-16T05:26:47.148Z,18.00
2018-06-16T05:29:15.731Z,19.70
2018-06-16T05:31:44.344Z,21.43
2018-06-16T05:34:12.899Z,17.67
2018-06-16T05:36:41.423Z,16.87
2018-06-16T05:39:10.850Z,19.30
2018-06-16T05:41:39.546Z,16.90
2018-06-16T05:44:08.127Z,20.37
2018-06-16T05:46:37.101Z,16.77
2018-06-16T05:49:06.056Z,18.67
2018-06-16T05:51:34.538Z,16.90
2018-06-16T05:54:03.129Z,17.47
2018-06-16T05:56:31.630Z,17.67
2018-06-16T05:59:00.188Z,18.70
2018-06-16T06:01:28.704Z,23.40
2018-06-16T06:03:57.305Z,20.03
2018-06-16T06:06:25.893Z,17.30
2018-06-16T06:08:54.518Z,16.17
2018-06-16T06:11:23.011Z,18.57
2018-06-16T06:13:51.636Z,18.60
2018-06-16T06:16:20.158Z,16.80
2018-06-16T06:18:48.702Z,16.10
2018-06-16T06:21:17.406Z,17.07
2018-06-16T06:23:45.931Z,16.93
2018-06-16T06:26:14.491Z,18.87
2018-06-16T06:28:43.066Z,16.37
2018-06-16T06:31:11.615Z,17.87
2018-06-16T06:33:39.793Z,17.47
2018-06-16T06:36:08.275Z,18.00
2018-06-16T06:38:36.794Z,17.00
2018-06-16T06:41:05.605Z,15.67
2018-06-16T06:43:34.176Z,22.53
2018-06-16T06:46:02.863Z,16.40
2018-06-16T06:48:31.517Z,18.80
2018-06-16T06:51:00.196Z,18.27
2018-06-16T06:53:28.934Z,17.23
2018-06-16T06:55:57.612Z,16.03
2018-06-16T06:58:26.142Z,16.43
2018-06-16T07:00:54.780Z,18.93
2018-06-16T07:03:23.250Z,17.80
2018-06-16T07:05:51.946Z,17.80
2018-06-16T07:08:20.507Z,17.80
2018-06-16T07:10:49.057Z,19.07
2018-06-16T07:13:17.627Z,15.57
2018-06-16T07:15:46.263Z,16.97
2018-06-16T07:18:14.759Z,18.40
2018-06-16T07:20:43.294Z,18.33
2018-06-16T07:23:11.878Z,17.00
2018-06-16T07:25:40.452Z,15.47
2018-06-16T07:28:09.014Z,20.97
2018-06-16T07:30:37.586Z,17.40
2018-06-16T07:33:06.243Z,15.80
2018-06-16T07:35:34.842Z,18.07
2018-06-16T07:38:03.451Z,19.80
2018-06-16T07:40:32.016Z,17.03
2018-06-16T07:43:00.518Z,17.27
2018-06-16T07:45:29.098Z,15.27
2018-06-16T07:47:57.683Z,15.90
2018-06-16T07:50:25.895Z,19.47
2018-06-16T07:52:54.398Z,16.97
2018-06-16T07:55:22.903Z,16.50
2018-06-16T07:57:51.464Z,17.63
2018-06-16T08:00:20.139Z,15.13
2018-06-16T08:02:48.765Z,14.93
2018-06-16T08:05:17.343Z,16.03
2018-06-16T08:07:45.852Z,13.00
2018-06-16T08:10:15.088Z,19.60
2018-06-16T08:12:43.675Z,13.27
2018-06-16T08:15:12.134Z,16.30
2018-06-16T08:17:40.634Z,15.03
2018-06-16T08:20:09.132Z,16.23
2018-06-16T08:22:37.651Z,15.77
2018-06-16T08:25:06.369Z,15.07
2018-06-16T08:27:34.926Z,18.00
2018-06-16T08:30:03.778Z,15.70
2018-06-16T08:32:32.536Z,12.90
2018-06-16T08:35:01.122Z,16.03
2018-06-16T08:37:29.693Z,12.90
2018-06-16T08:39:58.287Z,16.67
2018-06-16T08:42:26.847Z,14.47
2018-06-16T08:44:55.386Z,14.17
2018-06-16T08:47:23.907Z,14.80
2018-06-16T08:49:52.462Z,18.33
2018-06-16T08:52:20.947Z,14.40
2018-06-16T08:54:49.668Z,16.60
2018-06-16T08:57:18.244Z,19.07
2018-06-16T08:59:46.799Z,14.77
2018-06-16T09:02:15.309Z,13.83
2018-06-16T09:04:43.835Z,14.03
2018-06-16T09:07:12.426Z,14.60
2018-06-16T09:09:41.007Z,14.33
2018-06-16T09:12:09.580Z,13.90
2018-06-16T09:14:38.368Z,14.93
2018-06-16T09:17:07.066Z,17.10
2018-06-16T09:19:35.630Z,15.17
2018-06-16T09:22:04.160Z,15.50
2018-06-16T09:24:32.727Z,15.70
2018-06-16T09:27:01.397Z,16.33
2018-06-16T09:29:29.895Z,20.30
2018-06-16T09:31:58.483Z,15.57
2018-06-16T09:34:26.959Z,16.67
2018-06-16T09:36:55.534Z,17.33
2018-06-16T09:39:23.802Z,15.00
2018-06-16T09:41:52.332Z,16.20
2018-06-16T09:44:20.820Z,15.90
2018-06-16T09:46:49.379Z,13.33
2018-06-16T09:49:17.866Z,16.93
2018-06-16T09:51:46.359Z,15.10
2018-06-16T09:54:14.882Z,17.57
2018-06-16T09:56:43.444Z,17.33
2018-06-16T09:59:12.004Z,17.50
2018-06-16T10:01:40.584Z,14.00
2018-06-16T10:04:09.203Z,15.87
2018-06-16T10:06:37.782Z,15.63
2018-06-16T10:09:08.071Z,16.77
2018-06-16T10:11:36.714Z,17.57
2018-06-16T10:14:05.054Z,15.37
2018-06-16T10:16:33.987Z,16.60
2018-06-16T10:19:02.677Z,19.90
2018-06-16T10:21:31.202Z,17.50
2018-06-16T10:23:59.779Z,17.60
2018-06-16T10:26:28.284Z,15.53
2018-06-16T10:28:57.006Z,19.03
2018-06-16T10:31:25.494Z,16.17
2018-06-16T10:33:53.698Z,15.20
2018-06-16T10:36:22.320Z,19.57
2018-06-16T10:38:50.808Z,16.23
2018-06-16T10:41:19.368Z,20.03
2018-06-16T10:43:48.083Z,14.63
2018-06-16T10:46:16.314Z,14.70
2018-06-16T10:48:44.946Z,19.97
2018-06-16T10:51:13.699Z,17.77
2018-06-16T10:53:42.441Z,18.47
2018-06-16T10:56:11.053Z,14.60
2018-06-16T10:58:39.639Z,17.97
2018-06-16T11:01:08.315Z,14.80
2018-06-16T11:03:36.906Z,14.67
2018-06-16T11:06:05.464Z,13.80
2018-06-16T11:08:34.103Z,20.03
2018-06-16T11:11:02.664Z,14.47
2018-06-16T11:13:31.184Z,14.93
2018-06-16T11:15:59.383Z,15.77
2018-06-16T11:18:28.059Z,16.47
2018-06-16T11:20:56.762Z,18.43
2018-06-16T11:23:25.326Z,15.30
2018-06-16T11:25:53.958Z,13.27
2018-06-16T11:28:22.758Z,13.27
2018-06-16T11:30:51.475Z,11.87
2018-06-16T11:33:19.665Z,14.83
2018-06-16T11:35:48.232Z,16.53
2018-06-16T11:38:16.432Z,17.07
2018-06-16T11:40:45.275Z,13.57
2018-06-16T11:43:13.843Z,14.93
2018-06-16T11:45:42.400Z,13.40
2018-06-16T11:48:11.004Z,16.80
2018-06-16T11:50:39.561Z,12.57
2018-06-16T11:53:08.306Z,13.77
2018-06-16T11:55:36.878Z,15.20
2018-06-16T11:58:06.728Z,14.27
2018-06-16T12:00:35.372Z,17.37
2018-06-16T12:03:03.975Z,14.00
2018-06-16T12:05:32.479Z,13.53
2018-06-16T12:08:01.024Z,13.03
2018-06-16T12:10:29.594Z,12.10
2018-06-16T12:12:58.117Z,11.77
2018-06-16T12:15:26.724Z,13.73
2018-06-16T12:17:55.348Z,14.73
2018-06-16T12:20:23.983Z,16.37
2018-06-16T12:22:52.455Z,13.77
2018-06-16T12:25:21.024Z,12.80
2018-06-16T12:27:49.570Z,12.87
2018-06-16T12:30:18.391Z,14.03
2018-06-16T12:32:46.971Z,17.17
2018-06-16T12:35:15.563Z,16.23
2018-06-16T12:37:44.123Z,13.10
2018-06-16T12:40:12.418Z,17.47
2018-06-16T12:42:41.031Z,14.07
2018-06-16T12:45:09.568Z,15.33
2018-06-16T12:47:38.523Z,17.43
2018-06-16T12:50:07.179Z,17.77
2018-06-16T12:52:35.740Z,17.73
2018-06-16T12:55:04.105Z,14.67
2018-06-16T12:57:32.669Z,14.20
2018-06-16T13:00:01.613Z,13.40
2018-06-16T13:02:30.558Z,16.37
2018-06-16T13:04:58.786Z,18.07
2018-06-16T13:07:27.643Z,14.47
2018-06-16T13:09:56.187Z,24.93
2018-06-16T13:12:25.169Z,14.87
2018-06-16T13:14:53.851Z,13.90
2018-06-16T13:17:22.561Z,13.23
2018-06-16T13:19:51.150Z,15.03
2018-06-16T13:22:19.728Z,15.10
2018-06-16T13:24:48.279Z,13.30
2018-06-16T13:27:16.966Z,15.63
2018-06-16T13:29:45.668Z,13.33
2018-06-16T13:32:14.179Z,16.83
2018-06-16T13:34:42.936Z,14.27
2018-06-16T13:37:11.518Z,12.70
2018-06-16T13:39:40.253Z,18.60
2018-06-16T13:42:08.850Z,12.50
2018-06-16T13:44:37.411Z,13.53
2018-06-16T13:47:05.636Z,14.13
2018-06-16T13:49:34.251Z,15.93
2018-06-16T13:52:02.837Z,16.00
2018-06-16T13:54:31.396Z,17.40
2018-06-16T13:57:00.188Z,16.10
2018-06-16T13:59:29.087Z,20.87
2018-06-16T14:01:57.632Z,21.00
2018-06-16T14:04:26.247Z,22.37
2018-06-16T14:06:55.067Z,16.63
2018-06-16T14:09:23.267Z,20.60
2018-06-16T14:11:51.847Z,16.87
2018-06-16T14:14:20.836Z,17.60
2018-06-16T14:16:49.382Z,17.33
2018-06-16T14:19:17.923Z,20.73
2018-06-16T14:21:46.750Z,29.60
2018-06-16T14:24:15.333Z,20.33
2018-06-16T14:26:44.097Z,28.00
2018-06-16T14:29:12.635Z,19.27
2018-06-16T14:31:41.178Z,18.97
2018-06-16T14:34:09.732Z,22.43
2018-06-16T14:36:38.351Z,23.37
2018-06-16T14:39:08.239Z,20.67
2018-06-16T14:41:37.023Z,20.53
2018-06-16T14:44:05.917Z,17.93
2018-06-16T14:46:34.614Z,22.87
2018-06-16T14:49:03.319Z,19.23
2018-06-16T14:51:32.016Z,19.87
2018-06-16T14:54:00.371Z,20.73
2018-06-16T14:56:28.912Z,19.90
2018-06-16T14:58:57.424Z,18.07
2018-06-16T15:01:25.953Z,17.90
2018-06-16T15:03:54.654Z,21.20
2018-06-16T15:06:23.235Z,21.03
2018-06-16T15:08:52.103Z,20.40
2018-06-16T15:11:20.991Z,22.93
2018-06-16T15:13:49.750Z,20.47
2018-06-16T15:16:18.460Z,17.57
2018-06-16T15:18:47.052Z,18.73
2018-06-16T15:21:15.675Z,18.17
2018-06-16T15:23:44.249Z,18.00
2018-06-16T15:26:12.810Z,19.40
2018-06-16T15:28:41.763Z,19.33
2018-06-16T15:31:09.938Z,18.83
2018-06-16T15:33:38.451Z,25.63
2018-06-16T15:36:07.124Z,19.07
2018-06-16T15:38:35.827Z,19.27
2018-06-16T15:41:04.668Z,24.13
2018-06-16T15:43:33.563Z,14.70
2018-06-16T15:46:02.108Z,17.80
2018-06-16T15:48:30.638Z,16.23
2018-06-16T15:50:59.240Z,22.90
2018-06-16T15:53:28.220Z,21.63
2018-06-16T15:55:56.731Z,18.20
2018-06-16T15:58:25.342Z,23.93
2018-06-16T16:00:53.847Z,17.57
2018-06-16T16:03:22.762Z,16.10
2018-06-16T16:05:51.452Z,27.43
2018-06-16T16:08:20.103Z,19.50
2018-06-16T16:10:48.671Z,18.90
2018-06-16T16:13:17.237Z,14.63
2018-06-16T16:15:45.756Z,21.50
2018-06-16T16:18:14.290Z,15.80
2018-06-16T16:20:42.930Z,23.77
2018-06-16T16:23:11.638Z,16.67
2018-06-16T16:25:40.244Z,21.67
2018-06-16T16:28:09.160Z,22.00
2018-06-16T16:30:37.859Z,18.23
2018-06-16T16:33:06.760Z,17.47
2018-06-16T16:35:35.481Z,15.33
2018-06-16T16:38:04.124Z,21.90
2018-06-16T16:40:32.683Z,25.13
2018-06-16T16:43:01.315Z,18.07
2018-06-16T16:45:29.888Z,15.80
2018-06-16T16:47:58.548Z,17.77
2018-06-16T16:50:27.308Z,29.73
2018-06-16T16:52:55.947Z,21.30
2018-06-16T16:55:24.591Z,18.27
2018-06-16T16:57:53.415Z,17.00
2018-06-16T17:00:22.090Z,18.03
2018-06-16T17:02:50.599Z,19.83
2018-06-16T17:05:19.133Z,16.50
2018-06-16T17:07:47.760Z,15.53
2018-06-16T17:10:16.301Z,20.20
2018-06-16T17:12:44.831Z,16.73
2018-06-16T17:15:13.623Z,15.50
2018-06-16T17:17:42.218Z,16.43
2018-06-16T17:20:10.838Z,18.23
2018-06-16T17:22:39.471Z,15.70
2018-06-16T17:25:08.098Z,16.83
2018-06-16T17:27:36.820Z,15.80
2018-06-16T17:30:05.659Z,17.23
2018-06-16T17:32:34.322Z,16.10
2018-06-16T17:35:02.919Z,16.57
2018-06-16T17:37:31.472Z,17.23
2018-06-16T17:40:00.038Z,17.43
2018-06-16T17:42:28.819Z,16.43
2018-06-16T17:44:57.479Z,15.83
2018-06-16T17:47:26.387Z,18.37
2018-06-16T17:49:55.383Z,16.77
2018-06-16T17:52:24.260Z,19.93
2018-06-16T17:54:53.315Z,17.27
2018-06-16T17:57:21.920Z,22.33
2018-06-16T17:59:50.559Z,20.77
2018-06-16T18:02:19.170Z,19.67
2018-06-16T18:04:48.099Z,19.57
2018-06-16T18:07:17.835Z,21.00
2018-06-16T18:09:46.536Z,18.90
2018-06-16T18:12:15.240Z,19.83
2018-06-16T18:14:43.970Z,25.90
2018-06-16T18:17:12.744Z,18.13
2018-06-16T18:19:41.443Z,20.70
2018-06-16T18:22:09.999Z,23.73
2018-06-16T18:24:38.591Z,20.90
2018-06-16T18:27:07.091Z,20.33
2018-06-16T18:29:35.664Z,23.73
2018-06-16T18:32:04.381Z,22.77
2018-06-16T18:34:33.308Z,20.60
2018-06-16T18:37:02.040Z,26.17
2018-06-16T18:39:30.715Z,21.20
2018-06-16T18:41:59.400Z,21.10
2018-06-16T18:44:28.141Z,24.17
2018-06-16T18:46:56.734Z,23.03
2018-06-16T18:49:25.478Z,22.37
2018-06-16T19:14:05.552Z,20.65
2018-06-16T19:48:35.974Z,20.30
2018-06-16T19:51:04.495Z,22.27
2018-06-16T19:53:33.189Z,23.07
2018-06-16T19:56:01.928Z,25.00
2018-06-16T19:58:30.559Z,23.10
2018-06-16T20:00:59.323Z,24.07
2018-06-16T20:03:28.026Z,22.10
2018-06-16T20:05:56.635Z,33.40
2018-06-16T20:08:25.201Z,43.27
2018-06-16T20:10:53.784Z,36.37
2018-06-16T20:13:22.487Z,30.90
2018-06-16T20:15:51.224Z,26.47
2018-06-16T20:18:19.875Z,24.30
2018-06-16T20:20:48.616Z,22.50
2018-06-16T20:23:17.468Z,27.27
2018-06-16T20:25:46.040Z,28.43
2018-06-16T20:28:14.666Z,25.17
2018-06-16T20:30:43.319Z,24.37
2018-06-16T20:33:11.920Z,27.73
2018-06-16T20:35:40.503Z,22.70
2018-06-16T20:38:09.151Z,24.70
2018-06-16T20:40:37.689Z,25.07
2018-06-16T20:43:06.359Z,25.80
2018-06-16T20:45:34.963Z,25.30
2018-06-16T20:48:03.851Z,30.03
2018-06-16T20:50:32.387Z,28.77
2018-06-16T20:53:00.944Z,27.07
2018-06-16T20:55:29.532Z,30.27
2018-06-16T20:57:58.261Z,32.40
2018-06-16T21:00:26.919Z,25.67
2018-06-16T21:02:55.491Z,31.90
2018-06-16T21:05:24.063Z,28.17
2018-06-16T21:07:52.827Z,29.50
2018-06-16T21:10:21.465Z,27.93
2018-06-16T21:12:50.383Z,29.33
2018-06-16T21:15:19.078Z,29.37
2018-06-16T21:17:47.671Z,31.90
2018-06-16T21:20:16.415Z,32.43
2018-06-16T21:22:45.019Z,30.53
2018-06-16T21:25:13.562Z,35.00
2018-06-16T21:27:42.272Z,32.70
2018-06-16T21:30:10.847Z,36.90
2018-06-16T21:32:39.730Z,30.67
2018-06-16T21:35:08.398Z,30.13
2018-06-16T21:37:37.045Z,34.00
2018-06-16T21:40:05.779Z,33.87
2018-06-16T21:42:35.072Z,35.43
2018-06-16T21:45:03.866Z,37.57
2018-06-16T21:47:32.451Z,34.70
2018-06-16T21:50:01.033Z,35.60
2018-06-16T21:52:29.618Z,30.23
2018-06-16T21:54:58.174Z,35.93
2018-06-16T21:57:26.692Z,41.07
2018-06-16T21:59:55.346Z,38.40
2018-06-16T22:02:23.947Z,34.23
2018-06-16T22:04:52.707Z,36.20
2018-06-16T22:07:21.327Z,37.13
2018-06-16T22:09:49.938Z,38.10
2018-06-16T22:12:18.547Z,32.80
2018-06-16T22:14:47.248Z,36.13
2018-06-16T22:17:15.952Z,38.70
2018-06-16T22:19:44.548Z,36.07
2018-06-16T22:22:13.062Z,36.40
2018-06-16T22:24:41.676Z,34.03
2018-06-16T22:27:10.198Z,42.43
2018-06-16T22:29:38.841Z,35.93
2018-06-16T22:32:07.402Z,35.10
2018-06-16T22:34:35.911Z,38.23
2018-06-16T22:37:04.698Z,39.00
2018-06-16T22:39:33.360Z,37.43
2018-06-16T22:42:01.984Z,40.97
2018-06-16T22:44:30.529Z,38.33
2018-06-16T22:46:59.116Z,43.73
2018-06-16T22:49:27.635Z,43.37
2018-06-16T22:51:56.159Z,42.47
2018-06-16T22:54:24.725Z,43.03
2018-06-16T22:56:53.278Z,50.13
2018-06-16T22:59:21.837Z,44.73
2018-06-16T23:01:51.140Z,43.37
2018-06-16T23:04:19.677Z,45.33
2018-06-16T23:06:48.497Z,39.50
2018-06-16T23:09:17.304Z,42.77
2018-06-16T23:11:46.049Z,44.13
2018-06-16T23:14:14.661Z,44.67
2018-06-16T23:16:43.252Z,49.23
2018-06-16T23:19:11.820Z,43.80
2018-06-16T23:21:40.362Z,43.93
2018-06-16T23:24:09.002Z,50.83
2018-06-16T23:26:37.546Z,53.13
2018-06-16T23:29:06.043Z,51.67
2018-06-16T23:31:34.607Z,53.93
2018-06-16T23:34:03.382Z,56.43
2018-06-16T23:36:31.963Z,49.70
2018-06-16T23:39:00.609Z,43.67
2018-06-16T23:41:29.302Z,53.17
2018-06-16T23:43:57.915Z,51.60
2018-06-16T23:46:26.466Z,63.57
2018-06-16T23:48:55.018Z,67.60
2018-06-16T23:51:23.511Z,65.73
2018-06-16T23:53:52.047Z,66.17
2018-06-16T23:56:20.542Z,46.53
2018-06-16T23:58:49.158Z,48.90
